Time;durP1;ratioP1;P1;durP2;ratioP2;P2;SDS_P1;SDS_P2;PMS_P1;PMS_P2;Temp;Humidity;BMP_temperature;BMP_pressure;BME280_temperature;BME280_humidity;BME280_pressure;Samples;Min_cycle;Max_cycle;Signal;HPM_P1;HPM_P2
2022/06/05 00:02:37;;;;;;;8.55;8.07;;;;;;;19.96;100.00;101613.59;5246981;28;20163;-60
2022/06/05 00:05:20;;;;;;;8.85;7.65;;;;;;;19.55;100.00;101584.16;5226684;28;20040;-60
2022/06/05 00:08:03;;;;;;;8.20;7.50;;;;;;;19.32;100.00;101577.63;5245410;28;20024;-58
2022/06/05 00:10:51;;;;;;;8.82;8.13;;;;;;;19.23;100.00;101574.75;5246020;28;20404;-59
2022/06/05 00:13:45;;;;;;;9.50;8.55;;;;;;;19.21;100.00;101581.63;5245561;28;20038;-60
2022/06/05 00:16:18;;;;;;;8.52;8.02;;;;;;;19.18;100.00;101568.53;5245541;28;20197;-59
2022/06/05 00:18:48;;;;;;;8.95;8.43;;;;;;;19.06;100.00;101582.63;5245329;28;20024;-60
2022/06/05 00:21:19;;;;;;;9.20;8.60;;;;;;;18.97;100.00;101567.19;5247190;28;20168;-60
2022/06/05 00:23:51;;;;;;;8.95;8.23;;;;;;;18.87;100.00;101576.34;5245357;28;20020;-59
2022/06/05 00:26:33;;;;;;;9.55;8.77;;;;;;;18.78;100.00;101576.16;5245152;28;20020;-60
2022/06/05 00:29:28;;;;;;;9.57;8.82;;;;;;;18.76;100.00;101574.88;5245235;28;20024;-59
2022/06/05 00:32:31;;;;;;;10.70;9.82;;;;;;;18.74;100.00;101572.44;5245729;28;20435;-59
2022/06/05 00:35:02;;;;;;;11.75;10.70;;;;;;;18.59;100.00;101560.81;5222361;28;20032;-60
2022/06/05 00:37:38;;;;;;;12.02;11.18;;;;;;;18.36;100.00;101551.53;5245044;28;20074;-58
2022/06/05 00:40:36;;;;;;;12.65;11.75;;;;;;;18.08;100.00;101529.41;5245113;28;20021;-58
2022/06/05 00:43:11;;;;;;;11.30;8.90;;;;;;;18.06;100.00;101544.47;5244688;28;20360;-59
2022/06/05 00:45:42;;;;;;;9.70;9.00;;;;;;;18.03;100.00;101551.31;5244730;28;20033;-59
2022/06/05 00:48:13;;;;;;;10.73;9.82;;;;;;;17.99;100.00;101546.72;5244584;28;20062;-59
2022/06/05 00:50:44;;;;;;;10.07;9.48;;;;;;;17.94;100.00;101544.03;5244469;28;20033;-60
2022/06/05 00:53:15;;;;;;;10.95;10.23;;;;;;;17.85;100.00;101536.47;5244899;28;20115;-60
2022/06/05 00:55:48;;;;;;;11.95;11.07;;;;;;;17.78;100.00;101530.53;5244388;28;20112;-60
2022/06/05 00:58:34;;;;;;;11.40;10.52;;;;;;;17.63;100.00;101524.34;5244918;28;20032;-60
2022/06/05 01:01:04;;;;;;;14.00;12.63;;;;;;;17.40;100.00;101491.25;5244567;28;20024;-59
2022/06/05 01:03:36;;;;;;;12.80;11.85;;;;;;;17.45;100.00;101520.41;5244508;28;20503;-60
2022/06/05 01:06:07;;;;;;;11.65;10.50;;;;;;;17.33;100.00;101514.50;5244306;28;20020;-60
2022/06/05 01:08:37;;;;;;;10.77;9.98;;;;;;;17.24;100.00;101527.97;5244048;28;20047;-61
2022/06/05 01:11:18;;;;;;;11.35;10.30;;;;;;;17.21;100.00;101509.41;5243479;28;20025;-59
2022/06/05 01:14:07;;;;;;;10.73;10.02;;;;;;;17.21;100.00;101499.31;5244413;28;20050;-59
2022/06/05 01:16:43;;;;;;;11.75;10.98;;;;;;;17.19;100.00;101506.16;5244998;28;20484;-60
2022/06/05 01:19:35;;;;;;;13.18;12.30;;;;;;;17.15;100.00;101491.44;5244478;28;20169;-60
2022/06/05 01:22:31;;;;;;;12.65;11.85;;;;;;;17.16;100.00;101493.09;5244666;28;20396;-59
2022/06/05 01:25:38;;;;;;;12.77;11.65;;;;;;;17.18;100.00;101464.41;5244151;28;20283;-58
2022/06/05 01:28:19;;;;;;;12.20;11.23;;;;;;;17.18;100.00;101455.41;5244263;28;20555;-58
2022/06/05 01:31:01;;;;;;;11.10;10.25;;;;;;;17.15;100.00;101445.06;5244016;28;20511;-58
2022/06/05 01:33:36;;;;;;;11.93;11.07;;;;;;;17.13;100.00;101439.06;5243819;28;20028;-59
2022/06/05 01:36:20;;;;;;;12.48;11.50;;;;;;;17.13;100.00;101425.41;5244030;28;20025;-59
2022/06/05 01:39:06;;;;;;;12.75;11.73;;;;;;;17.02;100.00;101404.78;5244221;28;20032;-58
2022/06/05 01:41:51;;;;;;;14.65;13.45;;;;;;;17.16;100.00;101412.00;5244226;28;20024;-60
2022/06/05 01:44:31;;;;;;;14.82;13.73;;;;;;;17.11;100.00;101413.97;5243707;28;20052;-57
2022/06/05 01:47:06;;;;;;;15.93;14.40;;;;;;;17.06;100.00;101403.09;5244392;28;20401;-59
2022/06/05 01:50:02;;;;;;;14.02;13.10;;;;;;;17.00;100.00;101388.69;5244172;28;20020;-58
2022/06/05 01:52:39;;;;;;;14.77;13.27;;;;;;;16.90;100.00;101388.78;5244523;28;20033;-59
2022/06/05 01:55:20;;;;;;;14.57;13.63;;;;;;;16.86;100.00;101396.72;5243880;28;20115;-58
2022/06/05 01:57:55;;;;;;;12.75;11.98;;;;;;;16.85;100.00;101410.63;5244114;28;20165;-59
2022/06/05 02:00:25;;;;;;;17.23;15.30;;;;;;;16.79;100.00;101407.13;5243945;28;20550;-60
2022/06/05 02:03:07;;;;;;;13.10;12.23;;;;;;;16.86;100.00;101418.53;5243584;28;20036;-59
2022/06/05 02:05:51;;;;;;;13.23;12.43;;;;;;;16.85;100.00;101427.81;5244056;28;20032;-59
2022/06/05 02:08:37;;;;;;;14.77;13.68;;;;;;;16.82;100.00;101425.66;5244158;28;20028;-59
2022/06/05 02:11:23;;;;;;;14.93;13.95;;;;;;;16.68;100.00;101408.31;5245623;28;20039;-58
2022/06/05 02:14:05;;;;;;;14.48;13.38;;;;;;;16.75;100.00;101419.69;5247291;28;20035;-59
2022/06/05 02:16:37;;;;;;;14.05;12.85;;;;;;;16.76;100.00;101417.78;5246761;28;20028;-60
2022/06/05 02:19:12;;;;;;;13.45;12.35;;;;;;;16.68;100.00;101391.13;5247444;28;20016;-58
2022/06/05 02:21:43;;;;;;;15.82;14.73;;;;;;;16.71;100.00;101385.13;5247367;28;20093;-57
2022/06/05 02:24:15;;;;;;;14.05;12.93;;;;;;;16.75;100.00;101386.97;5247260;28;20422;-60
2022/06/05 02:26:45;;;;;;;15.52;14.30;;;;;;;16.72;100.00;101386.75;5247276;28;20066;-60
2022/06/05 02:29:20;;;;;;;16.73;15.18;;;;;;;16.61;100.00;101382.41;5247039;28;20059;-62
2022/06/05 02:32:20;;;;;;;14.73;13.70;;;;;;;16.65;100.00;101373.44;5247341;28;20058;-59
2022/06/05 02:35:19;;;;;;;16.60;15.32;;;;;;;16.68;100.00;101370.13;5246873;28;20024;-60
2022/06/05 02:38:04;;;;;;;17.50;16.02;;;;;;;16.66;100.00;101358.69;5247429;28;20067;-59
2022/06/05 02:40:41;;;;;;;17.35;16.05;;;;;;;16.65;100.00;101353.53;5246956;28;20231;-60
2022/06/05 02:43:19;;;;;;;14.70;13.27;;;;;;;16.68;100.00;101348.31;5247348;28;20485;-59
2022/06/05 02:45:53;;;;;;;14.40;13.50;;;;;;;16.71;100.00;101341.47;5246749;28;20139;-60
2022/06/05 02:48:30;;;;;;;16.35;15.10;;;;;;;16.69;100.00;101332.78;5247176;28;20566;-59
2022/06/05 02:51:10;;;;;;;15.95;14.80;;;;;;;16.56;100.00;101317.84;5246750;28;20105;-61
2022/06/05 02:53:55;;;;;;;14.63;13.70;;;;;;;16.72;100.00;101338.47;5246797;28;20062;-59
2022/06/05 02:56:29;;;;;;;16.35;15.05;;;;;;;16.72;100.00;101332.19;5246920;28;20563;-60
2022/06/05 02:59:02;;;;;;;16.90;15.55;;;;;;;16.73;100.00;101339.28;5246535;28;20024;-59
2022/06/05 03:04:21;;;;;;;18.60;15.33;;;;;;;16.52;100.00;101314.84;5248329;28;20502;-61
2022/06/05 03:06:52;;;;;;;15.00;13.98;;;;;;;16.67;100.00;101335.78;5246720;28;20266;-62
2022/06/05 03:09:22;;;;;;;17.58;15.93;;;;;;;16.64;100.00;101330.91;5246579;28;20040;-60
2022/06/05 03:11:53;;;;;;;16.70;14.85;;;;;;;16.17;100.00;101261.41;5246352;28;20169;-62
2022/06/05 03:14:24;;;;;;;16.33;15.00;;;;;;;16.64;100.00;101330.91;5246055;28;20104;-61
2022/06/05 03:16:55;;;;;;;18.45;17.02;;;;;;;16.64;100.00;101336.34;5246541;28;20028;-61
2022/06/05 03:19:27;;;;;;;17.92;16.63;;;;;;;16.47;100.00;101303.16;5246540;28;20024;-62
2022/06/05 03:21:57;;;;;;;15.25;13.95;;;;;;;16.64;100.00;101325.44;5245846;28;20019;-60
2022/06/05 03:24:28;;;;;;;18.17;16.90;;;;;;;16.58;100.00;101320.28;5245773;28;20032;-62
2022/06/05 03:26:58;;;;;;;16.77;15.35;;;;;;;16.63;100.00;101326.50;5246064;28;20017;-63
2022/06/05 03:29:29;;;;;;;16.05;14.82;;;;;;;16.63;100.00;101331.97;5245987;28;20054;-59
2022/06/05 03:31:59;;;;;;;16.90;15.68;;;;;;;16.61;100.00;101325.16;5244666;28;20021;-61
2022/06/05 03:34:30;;;;;;;14.60;13.43;;;;;;;16.60;100.00;101321.63;5245537;28;20237;-62
2022/06/05 03:37:00;;;;;;;16.23;15.02;;;;;;;16.62;100.00;101324.06;5246109;28;20396;-61
2022/06/05 03:39:32;;;;;;;16.67;15.45;;;;;;;16.45;100.00;101298.03;5247351;28;20023;-63
2022/06/05 03:42:03;;;;;;;14.30;13.30;;;;;;;16.55;100.00;101318.94;5245724;28;20025;-61
2022/06/05 03:44:38;;;;;;;14.63;13.52;;;;;;;16.53;100.00;101323.84;5245281;28;20032;-61
2022/06/05 03:47:10;;;;;;;14.73;13.52;;;;;;;16.50;100.00;101317.03;5245676;28;20166;-62
2022/06/05 03:49:41;;;;;;;15.90;14.75;;;;;;;16.51;100.00;101315.94;5245495;28;20445;-60
2022/06/05 03:52:11;;;;;;;17.50;16.00;;;;;;;16.55;100.00;101330.66;5245510;28;20067;-63
2022/06/05 03:54:42;;;;;;;13.95;12.75;;;;;;;16.57;100.00;101324.91;5244865;28;20035;-63
2022/06/05 03:57:12;;;;;;;16.88;15.38;;;;;;;16.56;100.00;101315.09;5245168;28;20053;-63
2022/06/05 03:59:43;;;;;;;13.85;12.95;;;;;;;16.62;100.00;101316.69;5246711;28;20024;-63
2022/06/05 04:02:14;;;;;;;15.63;14.50;;;;;;;16.59;100.00;101311.00;5243769;28;20103;-63
2022/06/05 04:04:44;;;;;;;15.68;13.73;;;;;;;16.62;100.00;101308.53;5245070;28;20527;-63
2022/06/05 04:07:15;;;;;;;17.13;15.68;;;;;;;16.61;100.00;101303.34;5245441;28;20028;-63
2022/06/05 04:09:45;;;;;;;16.77;15.48;;;;;;;16.63;100.00;101301.16;5244986;28;20028;-63
2022/06/05 04:12:16;;;;;;;14.57;13.63;;;;;;;16.64;100.00;101309.06;5245176;28;20575;-63
2022/06/05 04:14:46;;;;;;;15.95;14.57;;;;;;;16.65;100.00;101318.06;5245346;28;20403;-63
2022/06/05 04:17:17;;;;;;;14.93;13.73;;;;;;;16.67;100.00;101321.34;5245361;28;20377;-63
2022/06/05 04:19:47;;;;;;;16.13;14.77;;;;;;;16.72;100.00;101313.13;5245401;28;20027;-61
2022/06/05 04:22:18;;;;;;;15.18;14.15;;;;;;;16.59;100.00;101295.44;5244969;28;20028;-62
2022/06/05 04:24:49;;;;;;;15.20;14.20;;;;;;;16.72;100.00;101313.94;5244770;28;20048;-63
2022/06/05 04:27:19;;;;;;;14.98;13.88;;;;;;;16.71;100.00;101323.22;5245015;28;20397;-62
2022/06/05 04:29:50;;;;;;;15.70;14.70;;;;;;;16.76;100.00;101312.22;5244841;28;20028;-61
2022/06/05 04:32:20;;;;;;;15.52;14.35;;;;;;;16.77;100.00;101310.31;5244009;28;20032;-62
2022/06/05 04:34:51;;;;;;;15.40;14.27;;;;;;;16.78;100.00;101315.50;5244628;28;20337;-61
2022/06/05 04:37:22;;;;;;;15.02;13.85;;;;;;;16.78;100.00;101304.56;5244774;28;20036;-61
2022/06/05 04:39:52;;;;;;;14.65;13.75;;;;;;;16.70;100.00;101290.75;5244887;28;20036;-62
2022/06/05 04:42:24;;;;;;;14.82;13.93;;;;;;;16.84;100.00;101308.91;5244696;28;20075;-61
2022/06/05 04:44:54;;;;;;;16.92;15.55;;;;;;;16.83;100.00;101315.44;5244485;28;20035;-62
2022/06/05 04:47:25;;;;;;;14.13;13.13;;;;;;;16.80;100.00;101316.00;5244536;28;20029;-62
2022/06/05 04:49:55;;;;;;;14.80;13.70;;;;;;;16.81;100.00;101320.38;5244498;28;20093;-62
2022/06/05 04:52:26;;;;;;;15.20;13.73;;;;;;;16.83;100.00;101317.34;5244433;28;20496;-63
2022/06/05 04:54:57;;;;;;;14.73;13.45;;;;;;;16.86;100.00;101322.25;5244342;28;20040;-63
2022/06/05 04:57:28;;;;;;;17.27;15.93;;;;;;;16.85;100.00;101315.97;5245769;28;20397;-62
2022/06/05 04:59:58;;;;;;;14.93;13.88;;;;;;;16.79;100.00;101299.94;5243147;28;20078;-62
2022/06/05 05:02:29;;;;;;;16.17;14.88;;;;;;;16.83;100.00;101312.72;5281162;22;20107;-81
2022/06/05 05:04:59;;;;;;;16.02;14.60;;;;;;;16.85;100.00;101305.06;5271579;28;20092;-81
2022/06/05 05:07:30;;;;;;;15.75;14.57;;;;;;;16.52;100.00;101256.78;5258508;28;20107;-82
2022/06/05 05:10:01;;;;;;;14.75;13.65;;;;;;;16.63;100.00;101288.34;5259096;28;20024;-82
2022/06/05 05:12:31;;;;;;;14.57;13.32;;;;;;;16.48;100.00;101277.53;5258751;28;20029;-82
2022/06/05 05:15:02;;;;;;;16.40;15.30;;;;;;;16.69;100.00;101298.13;5256997;28;20513;-79
2022/06/05 05:17:32;;;;;;;17.27;15.63;;;;;;;16.67;100.00;101297.59;5257516;28;20070;-82
2022/06/05 05:20:04;;;;;;;16.05;14.40;;;;;;;16.53;100.00;101296.59;5258908;28;20025;-81
2022/06/05 05:22:37;;;;;;;17.35;16.05;;;;;;;16.37;100.00;101260.47;5257220;28;20493;-80
2022/06/05 05:25:10;;;;;;;17.40;15.68;;;;;;;16.50;100.00;101269.88;5255489;28;20024;-80
2022/06/05 05:27:41;;;;;;;17.23;15.77;;;;;;;16.66;100.00;101295.97;5255898;28;20171;-80
2022/06/05 05:30:13;;;;;;;16.92;15.60;;;;;;;16.54;100.00;101274.50;5256021;28;20020;-81
2022/06/05 05:32:44;;;;;;;15.13;14.02;;;;;;;16.64;100.00;101281.00;5256606;28;20031;-81
2022/06/05 05:35:14;;;;;;;15.63;14.48;;;;;;;16.67;100.00;101281.25;5256838;28;20017;-80
2022/06/05 05:37:45;;;;;;;17.33;15.93;;;;;;;16.58;100.00;101249.38;5256947;28;20028;-81
2022/06/05 05:43:04;;;;;;;16.53;15.40;;;;;;;16.72;100.00;101253.94;5257447;28;20082;-82
2022/06/05 05:45:35;;;;;;;17.20;15.88;;;;;;;16.77;100.00;101255.75;5261752;28;20083;-82
2022/06/05 05:48:06;;;;;;;18.13;16.83;;;;;;;16.85;100.00;101260.59;5261551;28;20434;-82
2022/06/05 05:50:36;;;;;;;16.20;14.88;;;;;;;16.92;100.00;101255.63;5260157;28;20386;-83
2022/06/05 05:53:07;;;;;;;16.05;14.95;;;;;;;16.90;100.00;101233.28;5261156;28;20024;-83
2022/06/05 05:55:39;;;;;;;15.52;14.50;;;;;;;17.06;100.00;101242.09;5263139;28;20107;-83
2022/06/05 05:58:10;;;;;;;15.05;14.02;;;;;;;17.15;100.00;101243.09;5264807;28;20024;-82
2022/06/05 06:00:41;;;;;;;13.68;12.65;;;;;;;17.00;100.00;101205.09;5265386;28;20028;-84
2022/06/05 06:03:11;;;;;;;16.02;14.48;;;;;;;17.21;100.00;101215.47;5264385;28;20057;-83
2022/06/05 06:05:42;;;;;;;15.63;14.60;;;;;;;17.15;100.00;101183.88;5264612;28;20035;-84
2022/06/05 06:08:13;;;;;;;14.65;13.55;;;;;;;17.15;100.00;101163.94;5263765;28;20036;-83
2022/06/05 06:10:44;;;;;;;13.98;13.00;;;;;;;17.53;100.00;101212.03;5265654;28;20078;-83
2022/06/05 06:13:15;;;;;;;15.93;14.38;;;;;;;17.74;100.00;101242.66;5263109;28;20029;-80
2022/06/05 06:15:47;;;;;;;15.65;14.52;;;;;;;17.88;100.00;101223.59;5263397;28;20024;-84
2022/06/05 06:18:17;;;;;;;14.20;12.90;;;;;;;17.46;100.00;101162.44;5263601;28;20039;-82
2022/06/05 06:20:48;;;;;;;14.80;13.63;;;;;;;17.90;100.00;101209.66;5263057;28;20017;-85
2022/06/05 06:23:19;;;;;;;18.35;16.00;;;;;;;18.10;100.00;101232.00;5262014;28;20024;-82
2022/06/05 06:25:49;;;;;;;18.15;12.75;;;;;;;18.00;100.00;101193.09;5263758;28;20327;-83
2022/06/05 06:28:20;;;;;;;16.63;15.13;;;;;;;18.23;100.00;101203.09;5263847;28;20039;-82
2022/06/05 06:30:51;;;;;;;14.15;13.07;;;;;;;18.46;100.00;101223.22;5263629;28;20020;-83
2022/06/05 06:33:22;;;;;;;12.82;12.05;;;;;;;18.40;100.00;101191.59;5262420;28;20077;-86
2022/06/05 06:35:52;;;;;;;16.52;15.23;;;;;;;18.12;100.00;101157.91;5263790;28;20245;-83
2022/06/05 06:38:23;;;;;;;15.25;14.00;;;;;;;18.33;100.00;101175.59;5262448;28;20028;-83
2022/06/05 06:40:59;;;;;;;14.00;12.52;;;;;;;18.70;100.00;101234.03;5263485;28;20044;-83
2022/06/05 06:43:29;;;;;;;13.30;12.13;;;;;;;18.61;100.00;101198.34;5264180;28;20080;-85
2022/06/05 06:46:01;;;;;;;14.27;12.95;;;;;;;18.80;100.00;101196.34;5263282;28;20028;-82
2022/06/05 06:48:31;;;;;;;13.02;12.18;;;;;;;19.06;100.00;101206.78;5263267;28;20079;-82
2022/06/05 06:51:04;;;;;;;14.13;13.23;;;;;;;19.30;100.00;101229.31;5263236;28;20479;-83
2022/06/05 06:53:37;;;;;;;15.50;11.70;;;;;;;19.34;100.00;101232.25;5262576;28;20028;-82
2022/06/05 06:56:13;;;;;;;15.30;13.85;;;;;;;19.41;100.00;101232.63;5260961;28;20035;-81
2022/06/05 06:58:45;;;;;;;13.40;12.52;;;;;;;19.39;100.00;101218.44;5260277;28;20024;-82
2022/06/05 07:01:16;;;;;;;14.73;13.43;;;;;;;19.75;100.00;101234.94;5262664;28;20044;-82
2022/06/05 07:03:46;;;;;;;13.20;12.25;;;;;;;19.74;100.00;101203.19;5261979;28;20056;-83
2022/06/05 07:06:20;;;;;;;14.02;12.73;;;;;;;20.13;100.00;101228.03;5264772;28;20028;-81
2022/06/05 07:08:51;;;;;;;12.13;11.02;;;;;;;20.24;100.00;101192.91;5271236;28;20020;-81
2022/06/05 07:11:22;;;;;;;12.57;11.65;;;;;;;20.61;100.00;101229.31;5265648;28;20020;-82
2022/06/05 07:13:53;;;;;;;14.57;13.45;;;;;;;20.72;100.00;101223.25;5267784;28;20027;-80
2022/06/05 07:16:25;;;;;;;11.90;11.10;;;;;;;20.64;100.00;101210.28;5265054;28;20456;-81
2022/06/05 07:18:55;;;;;;;12.10;9.55;;;;;;;20.85;100.00;101216.84;5260129;28;20029;-82
2022/06/05 07:21:26;;;;;;;11.30;10.48;;;;;;;20.92;100.00;101207.34;5259700;28;20472;-82
2022/06/05 07:23:58;;;;;;;12.90;11.77;;;;;;;20.99;100.00;101194.78;5259702;28;20028;-82
2022/06/05 07:26:31;;;;;;;13.02;12.18;;;;;;;21.08;100.00;101156.34;5260018;28;20039;-81
2022/06/05 07:29:02;;;;;;;12.15;11.43;;;;;;;21.73;100.00;101197.53;5261274;28;20103;-81
2022/06/05 07:31:33;;;;;;;11.18;10.23;;;;;;;22.14;100.00;101199.03;5260847;28;20028;-81
2022/06/05 07:34:07;;;;;;;11.65;10.68;;;;;;;22.63;100.00;101214.13;5260443;28;20029;-82
2022/06/05 07:36:38;;;;;;;11.32;10.63;;;;;;;22.73;100.00;101172.47;5261300;28;20044;-81
2022/06/05 07:39:09;;;;;;;10.80;10.00;;;;;;;22.88;100.00;101173.88;5259682;28;20024;-82
2022/06/05 07:41:39;;;;;;;11.23;10.25;;;;;;;23.09;100.00;101172.03;5260557;28;20021;-83
2022/06/05 07:44:10;;;;;;;10.93;10.10;;;;;;;23.06;100.00;101147.09;5262188;28;20029;-82
2022/06/05 07:46:40;;;;;;;10.65;9.82;;;;;;;23.44;100.00;101196.59;5263239;28;20016;-81
2022/06/05 07:49:11;;;;;;;10.52;9.80;;;;;;;23.46;100.00;101178.56;5268951;28;20083;-80
2022/06/05 07:54:31;;;;;;;11.98;11.00;;;;;;;23.45;100.00;101179.72;5261440;28;20044;-83
2022/06/05 07:57:08;;;;;;;8.98;8.45;;;;;;;22.98;100.00;101164.47;5261428;28;20052;-82
2022/06/05 07:59:41;;;;;;;9.38;8.77;;;;;;;22.79;100.00;101160.19;5259506;28;20114;-82
2022/06/05 08:02:21;;;;;;;11.52;10.70;;;;;;;23.15;100.00;101164.34;5260256;28;20032;-84
2022/06/05 08:04:53;;;;;;;9.40;8.60;;;;;;;23.12;100.00;101154.00;5260985;28;20393;-82
2022/06/05 08:07:29;;;;;;;9.30;8.60;;;;;;;23.16;100.00;101139.22;5260191;28;20028;-82
2022/06/05 08:10:00;;;;;;;10.82;10.15;;;;;;;23.61;100.00;101170.88;5260823;28;20028;-81
2022/06/05 08:12:33;;;;;;;12.80;11.50;;;;;;;23.69;100.00;101150.69;5262855;28;20023;-81
2022/06/05 08:15:12;;;;;;;9.90;9.18;;;;;;;23.86;100.00;101156.88;5275390;28;20047;-81
2022/06/05 08:17:42;;;;;;;10.63;9.75;;;;;;;23.42;100.00;101138.22;5264718;28;20179;-81
2022/06/05 08:20:13;;;;;;;9.18;8.60;;;;;;;23.21;100.00;101146.50;5257960;28;20398;-81
2022/06/05 08:22:43;;;;;;;10.05;9.25;;;;;;;23.18;100.00;101145.22;5256868;28;20106;-81
2022/06/05 08:25:14;;;;;;;8.75;7.90;;;;;;;23.43;100.00;101159.94;5257779;28;20088;-81
2022/06/05 08:27:46;;;;;;;10.48;9.77;;;;;;;23.44;100.00;101147.78;5257323;28;20032;-82
2022/06/05 08:30:16;;;;;;;10.30;9.50;;;;;;;23.63;100.00;101161.13;5257499;28;20031;-82
2022/06/05 08:32:47;;;;;;;9.65;8.95;;;;;;;23.52;100.00;101154.38;5257969;28;20453;-81
2022/06/05 08:35:17;;;;;;;9.20;8.65;;;;;;;23.31;100.00;101140.59;5256473;28;20044;-82
2022/06/05 08:41:27;;;;;;;22.65;9.00;;;;;;;23.61;100.00;101157.09;5258243;28;20058;-82
2022/06/05 08:43:51;;;;;;;10.35;9.63;;;;;;;23.60;100.00;101147.22;5249892;28;20036;-83
2022/06/05 08:46:29;;;;;;;8.27;7.75;;;;;;;23.69;100.00;101139.66;5256220;28;20477;-82
2022/06/05 08:49:25;;;;;;;10.98;9.93;;;;;;;23.79;100.00;101170.41;5258195;28;20024;-82
2022/06/05 08:52:05;;;;;;;10.25;9.48;;;;;;;23.50;100.00;101142.88;5249715;28;20032;-82
2022/06/05 08:54:44;;;;;;;10.43;8.80;;;;;;;23.44;100.00;101167.06;5257533;28;20024;-82
2022/06/05 08:57:39;;;;;;;11.50;10.70;;;;;;;23.00;100.00;101171.25;5255874;28;20025;-81
2022/06/05 09:00:14;;;;;;;12.30;11.13;;;;;;;22.94;100.00;101171.75;5256523;28;20020;-82
2022/06/05 09:03:10;;;;;;;12.18;9.50;;;;;;;22.98;100.00;101158.94;5255065;28;20032;-81
2022/06/05 09:05:45;;;;;;;10.38;9.80;;;;;;;22.98;100.00;101164.47;5256933;28;20043;-83
2022/06/05 09:08:19;;;;;;;11.73;10.90;;;;;;;22.76;100.00;101163.56;5258157;28;20080;-82
2022/06/05 09:10:57;;;;;;;11.13;10.07;;;;;;;22.63;100.00;101161.81;5257363;28;20027;-83
2022/06/05 09:13:54;;;;;;;9.82;9.10;;;;;;;22.70;100.00;101153.06;5257595;28;20028;-81
2022/06/05 09:16:32;;;;;;;10.27;9.38;;;;;;;22.82;100.00;101153.19;5255711;28;20107;-80
2022/06/05 09:19:03;;;;;;;11.40;10.50;;;;;;;22.82;100.00;101140.22;5258213;28;20024;-83
2022/06/05 09:21:49;;;;;;;9.32;8.73;;;;;;;22.56;100.00;101126.53;5260142;28;20495;-83
2022/06/05 09:24:27;;;;;;;10.02;9.23;;;;;;;22.67;100.00;101149.03;5264307;28;20021;-81
2022/06/05 09:26:59;;;;;;;10.53;9.73;;;;;;;22.76;100.00;101141.53;5261738;28;20070;-80
2022/06/05 09:29:59;;;;;;;9.73;9.13;;;;;;;22.86;100.00;101140.38;5260400;28;20029;-81
2022/06/05 09:32:45;;;;;;;9.40;8.80;;;;;;;22.84;100.00;101132.44;5259650;28;20098;-81
2022/06/05 09:35:40;;;;;;;9.73;8.93;;;;;;;22.54;100.00;101139.00;5257526;28;20024;-81
2022/06/05 09:38:16;;;;;;;11.18;10.35;;;;;;;22.48;100.00;101152.19;5259037;28;20032;-81
2022/06/05 09:41:02;;;;;;;11.68;10.98;;;;;;;22.14;100.00;101133.81;5258654;28;20497;-81
2022/06/05 09:43:48;;;;;;;11.45;10.55;;;;;;;22.09;100.00;101145.00;5260481;28;20024;-80
2022/06/05 09:46:40;;;;;;;13.02;9.95;;;;;;;21.94;100.00;101141.91;5261917;28;20021;-82
2022/06/05 09:49:25;;;;;;;11.63;10.77;;;;;;;21.72;100.00;101118.16;5260824;28;20028;-81
2022/06/05 09:51:57;;;;;;;12.45;11.75;;;;;;;21.72;100.00;101137.38;5269115;28;20051;-81
2022/06/05 09:54:32;;;;;;;12.80;11.88;;;;;;;21.58;100.00;101136.75;5281143;28;20420;-80
2022/06/05 10:00:25;;;;;;;14.55;13.63;;;;;;;21.27;100.00;101129.47;5281714;28;20086;-83
2022/06/05 10:03:06;;;;;;;11.98;11.15;;;;;;;21.16;100.00;101142.66;5282824;28;20486;-82
2022/06/05 10:05:40;;;;;;;13.02;12.02;;;;;;;20.93;100.00;101126.63;5282315;28;20031;-82
2022/06/05 10:08:23;;;;;;;12.25;11.50;;;;;;;20.74;100.00;101110.41;5280168;28;20107;-82
2022/06/05 10:10:58;;;;;;;13.50;12.50;;;;;;;20.65;100.00;101113.13;5267798;28;20035;-81
2022/06/05 10:13:42;;;;;;;13.95;13.02;;;;;;;20.61;100.00;101134.09;5259043;28;20024;-84
2022/06/05 10:16:24;;;;;;;15.05;13.95;;;;;;;20.47;100.00;101139.69;5258943;28;20024;-82
2022/06/05 10:18:57;;;;;;;18.10;16.67;;;;;;;20.42;100.00;101137.09;5262412;28;20028;-82
2022/06/05 10:21:40;;;;;;;16.30;14.80;;;;;;;20.37;100.00;101136.38;5264035;28;20020;-83
2022/06/05 10:24:31;;;;;;;22.05;15.43;;;;;;;20.24;100.00;101129.84;5260320;28;20027;-84
2022/06/05 10:27:02;;;;;;;19.83;18.05;;;;;;;20.06;100.00;101142.66;5258255;28;20029;-81
2022/06/05 10:29:46;;;;;;;20.98;19.35;;;;;;;19.53;100.00;101105.03;5252623;28;20502;-79
2022/06/05 10:32:27;;;;;;;21.13;19.65;;;;;;;19.52;100.00;101135.47;5251521;28;20483;-79
2022/06/05 10:35:13;;;;;;;21.55;19.40;;;;;;;19.29;100.00;101126.38;5249022;28;20390;-82
2022/06/05 10:37:56;;;;;;;19.75;18.05;;;;;;;19.15;100.00;101155.69;5251769;28;20454;-80
2022/06/05 10:40:48;;;;;;;20.40;18.52;;;;;;;18.93;100.00;101134.53;5257020;28;20115;-81
2022/06/05 10:43:25;;;;;;;21.67;19.85;;;;;;;18.75;100.00;101133.53;5263276;28;20250;-81
2022/06/05 10:46:17;;;;;;;21.77;19.90;;;;;;;18.91;100.00;101163.31;5264511;28;20492;-80
2022/06/05 10:49:01;;;;;;;19.05;17.55;;;;;;;18.91;100.00;101155.91;5263244;28;20107;-79
2022/06/05 10:51:58;;;;;;;18.55;17.15;;;;;;;18.99;100.00;101154.41;5261653;28;20058;-81
2022/06/05 10:54:31;;;;;;;20.23;18.73;;;;;;;18.92;100.00;101154.81;5252909;28;20056;-78
2022/06/05 10:57:08;;;;;;;16.65;15.55;;;;;;;18.85;100.00;101149.72;5253677;28;20027;-79
2022/06/05 10:59:47;;;;;;;18.75;17.38;;;;;;;18.77;100.00;101144.97;5254268;28;20032;-81
2022/06/05 11:05:26;;;;;;;19.48;17.92;;;;;;;18.82;100.00;101147.59;5228771;28;20064;-81
2022/06/05 11:08:10;;;;;;;15.20;14.00;;;;;;;18.71;100.00;101116.09;5241678;28;20025;-80
2022/06/05 11:14:11;;;;;;;13.48;12.48;;;;;;;19.04;100.00;101132.41;5232208;28;20036;-80
2022/06/05 11:16:50;;;;;;;12.30;11.48;;;;;;;19.04;100.00;101135.97;5187645;28;20057;-81
2022/06/05 11:19:49;;;;;;;11.45;10.63;;;;;;;18.92;100.00;101143.03;5225875;28;20029;-79
2022/06/05 11:22:21;;;;;;;8.85;8.35;;;;;;;18.62;100.00;101128.88;5231465;28;20072;-80
2022/06/05 11:25:10;;;;;;;12.48;11.65;;;;;;;18.69;100.00;101133.94;5231392;28;20025;-81
2022/06/05 11:27:48;;;;;;;10.43;9.65;;;;;;;18.52;100.00;101118.06;5231173;28;20029;-79
2022/06/05 11:30:33;;;;;;;10.10;9.30;;;;;;;18.03;100.00;101062.13;5231200;28;20025;-81
2022/06/05 11:33:27;;;;;;;10.60;9.70;;;;;;;18.46;100.00;101136.53;5229573;28;20051;-80
2022/06/05 11:41:38;;;;;;;13.77;12.77;;;;;;;18.42;100.00;101145.63;3538188;26;20746;-60
2022/06/05 11:44:18;;;;;;;15.63;14.63;;;;;;;18.36;100.00;101141.38;5226237;28;20025;-60
2022/06/05 11:46:51;;;;;;;;;;;;;;;18.43;100.00;101134.41;5208291;28;20041;-60
2022/06/05 11:49:38;;;;;;;18.45;17.08;;;;;;;18.43;100.00;101136.31;5224436;28;19928;-60
2022/06/05 11:55:44;;;;;;;22.90;21.10;;;;;;;18.37;100.00;101130.13;5208293;28;20032;-60
2022/06/05 11:58:38;;;;;;;24.08;22.08;;;;;;;18.38;100.00;101128.19;5206585;28;20051;-60
2022/06/05 12:01:15;;;;;;;25.02;23.20;;;;;;;18.35;100.00;101134.28;5223913;28;20588;-60
2022/06/05 12:04:10;;;;;;;28.35;26.05;;;;;;;18.33;100.00;101131.84;5206899;28;20377;-61
2022/06/05 12:06:49;;;;;;;30.70;28.10;;;;;;;18.30;100.00;101132.44;5207968;28;20512;-60
2022/06/05 12:09:25;;;;;;;32.28;29.63;;;;;;;18.19;100.00;101126.31;5208280;28;20463;-61
2022/06/05 12:12:04;;;;;;;31.40;28.48;;;;;;;18.15;100.00;101129.97;5224995;28;20033;-60
2022/06/05 12:14:44;;;;;;;31.27;28.05;;;;;;;18.04;100.00;101129.34;5207800;28;20362;-59
2022/06/05 12:17:33;;;;;;;;;;;;;;;17.97;100.00;101139.03;5208447;28;20436;-60